Latest Weather Observations for Nullarbor

IDS60801

Issued at 1:35 pm CST Saturday 30 August 2014 (issued every 30 minutes, with the page automatically refreshed every 10 minutes)

About weather observations | Map of weather stations | Latest weather observations for SA | Other Formats
Station Details ID: 018106 Name: NULLARBOR Lat: -31.45 Lon: 130.90 Height: 64.0 m
Data from the previous 72 hours. | See also: Recent months at Nullarbor
Date/Time
CST
Temp
°C
App
Temp
°C
Dew
Point
Rel
Hum
%
Delta-T
°C
Wind Press
QNH
hPa
Press
MSL
hPa
Rain
since 9 am
mm
Dir
 
Spd
km/h
Gust
km/h
Spd
kts
Gust
kts
30/01:30pm 31.2 22.5 -5.4 9 16.1 NNW 32 46 17 25 1015.1 1015.1 0.0
30/01:00pm 30.1 21.1 -6.2 9 15.6 N 33 44 18 24 1015.5 1015.5 0.0
30/12:30pm 28.1 19.3 -3.9 12 14.1 NNW 33 43 18 23 1016.2 1016.2 0.0
30/12:00pm 28.5 20.1 -2.6 13 14.0 N 32 39 17 21 1016.7 1016.7 0.0
30/11:30am 26.1 17.5 -2.5 15 12.7 N 33 44 18 24 1017.2 1017.2 0.0
30/11:00am 25.3 16.9 -0.7 18 11.9 N 33 43 18 23 1017.8 1017.8 0.0
30/10:30am 23.2 14.5 -0.3 21 10.6 N 35 43 19 23 1017.8 1017.8 0.0
30/10:00am 21.7 13.6 0.8 25 9.5 N 33 43 18 23 1018.1 1018.1 0.0
30/09:30am 19.2 11.6 0.3 28 8.3 N 30 41 16 22 1018.4 1018.4 0.0
30/09:00am 17.3 9.7 0.5 32 7.3 N 30 39 16 21 1018.7 1018.7 0.0
30/08:30am 15.7 8.4 0.3 35 6.6 N 28 35 15 19 1018.6 1018.6 0.0
30/08:00am 14.4 7.5 -0.1 37 6.1 NNE 26 33 14 18 1018.4 1018.4 0.0
30/07:30am 13.7 6.7 -0.3 38 5.8 NNE 26 32 14 17 1018.3 1018.3 0.0
30/07:00am 13.3 6.3 -0.3 39 5.6 NNE 26 33 14 18 1018.0 1018.0 0.0
30/06:30am 13.7 6.4 -0.3 38 5.8 NNE 28 35 15 19 1017.8 1017.8 0.0
30/06:00am 14.3 6.9 -0.6 36 6.2 NNE 28 35 15 19 1017.9 1017.9 0.0
30/05:30am 14.9 7.2 -0.4 35 6.4 NNE 30 39 16 21 1018.0 1018.0 0.0
30/05:00am 15.2 7.4 -0.5 34 6.6 NNE 30 37 16 20 1017.9 1017.9 0.0
30/04:30am 15.3 7.9 -0.4 34 6.6 NNE 28 37 15 20 1017.8 1017.8 0.0
30/04:00am 15.7 7.9 -0.5 33 6.8 NNE 30 39 16 21 1017.8 1017.8 0.0
30/03:30am 15.9 8.2 -0.3 33 6.9 NNE 30 37 16 20 1017.9 1017.9 0.0
30/03:00am 16.0 8.7 -0.2 33 6.9 NNE 28 35 15 19 1018.0 1018.0 0.0
30/02:30am 16.0 8.7 -0.2 33 6.9 NNE 28 35 15 19 1018.4 1018.4 0.0
30/02:00am 16.1 8.8 -0.2 33 6.9 NNE 28 35 15 19 1018.7 1018.7 0.0
30/01:30am 16.1 8.8 -0.2 33 6.9 NNE 28 35 15 19 1019.0 1019.0 0.0
30/01:00am 16.1 8.7 -0.6 32 7.1 NNE 28 35 15 19 1019.2 1019.2 0.0
30/12:30am 16.9 9.9 -0.3 31 7.3 NNE 26 33 14 18 1019.5 1019.5 0.0
30/12:00am 17.1 10.1 -0.6 30 7.5 NNE 26 32 14 17 1019.2 1019.2 0.0
 
Date/Time
CST
Temp
°C
App
Temp
°C
Dew
Point
Rel
Hum
%
Delta-T
°C
Wind Press
QNH
hPa
Press
MSL
hPa
Rain
since 9 am
mm
Dir
 
Spd
km/h
Gust
km/h
Spd
kts
Gust
kts
29/11:30pm 17.3 10.6 -0.9 29 7.7 NNE 24 30 13 16 1019.4 1019.4 0.0
29/11:00pm 17.4 10.6 -1.8 27 8.0 NNE 24 30 13 16 1019.6 1019.7 0.0
29/10:30pm 18.0 11.2 -1.8 26 8.3 NNE 24 30 13 16 1019.7 1019.8 0.0
29/10:00pm 18.2 11.7 -2.1 25 8.5 NNE 22 24 12 13 1019.7 1019.8 0.0
29/09:30pm 18.5 12.0 -2.4 24 8.7 NNE 22 28 12 15 1019.7 1019.8 0.0
29/09:00pm 18.5 12.4 -2.4 24 8.7 NNE 20 24 11 13 1019.6 1019.7 0.0
29/08:30pm 19.1 13.0 -2.5 23 9.0 NNE 20 24 11 13 1019.4 1019.4 0.0
29/08:00pm 19.0 13.1 -2.6 23 9.0 NNE 19 22 10 12 1019.3 1019.3 0.0
29/07:30pm 19.5 13.5 -2.8 22 9.3 NNE 19 22 10 12 1019.0 1019.0 0.0
29/07:00pm 20.8 15.3 -2.3 21 9.8 NE 17 20 9 11 1018.8 1018.8 0.0
29/06:30pm 23.1 17.5 -3.3 17 11.2 NNE 17 19 9 10 1018.5 1018.5 0.0
29/06:00pm 24.9 19.7 -2.6 16 12.0 NNE 15 19 8 10 1018.5 1018.5 0.0
29/05:30pm 26.1 19.5 -3.5 14 12.9 N 22 30 12 16 1018.4 1018.4 0.0
29/05:00pm 28.1 20.7 -3.9 12 14.1 N 26 35 14 19 1018.3 1018.3 0.0
29/04:30pm 28.6 20.4 -3.6 12 14.3 N 30 43 16 23 1018.3 1018.3 0.0
29/04:00pm 29.0 20.9 -3.2 12 14.5 N 30 39 16 21 1018.4 1018.4 0.0
29/03:30pm 28.8 20.2 -2.3 13 14.1 N 33 48 18 26 1018.6 1018.6 0.0
29/03:00pm 28.6 20.2 -2.5 13 14.1 N 32 48 17 26 1018.9 1018.9 0.0
29/02:30pm 28.2 19.2 -2.8 13 13.9 N 35 44 19 24 1019.2 1019.2 0.0
29/02:00pm 28.5 19.1 -2.6 13 14.1 N 37 50 20 27 1019.6 1019.7 0.0
29/01:30pm 28.1 18.4 -1.9 14 13.7 N 39 50 21 27 1020.1 1020.2 0.0
29/01:00pm 28.2 18.7 -0.9 15 13.5 N 39 50 21 27 1020.7 1020.8 0.0
29/12:30pm 27.3 17.8 -0.7 16 12.9 N 39 50 21 27 1021.2 1021.3 0.0
29/12:16pm 26.7 17.1 -1.2 16 12.8 N 39 57 21 31 1021.4 1021.5 0.0
29/12:00pm 26.8 17.4 -0.3 17 12.6 N 39 52 21 28 1021.7 1021.8 0.0
29/11:30am 25.6 15.3 0.3 19 11.7 N 44 57 24 31 1022.2 1022.3 0.0
29/11:00am 25.0 15.4 1.2 21 11.2 N 41 56 22 30 1022.5 1022.6 0.0
29/10:30am 23.3 14.1 1.0 23 10.3 N 39 50 21 27 1023.1 1023.1 0.0
29/10:00am 22.3 14.0 1.9 26 9.6 N 35 48 19 26 1023.2 1023.2 0.0
29/09:30am 19.8 11.1 1.7 30 8.2 N 37 48 20 26 1023.3 1023.3 0.0
29/09:00am 17.7 10.2 1.2 33 7.3 NNE 30 46 16 25 1023.3 1023.3 0.0
29/08:30am 15.3 8.4 0.3 36 6.4 NNE 26 35 14 19 1023.2 1023.2 0.0
29/08:00am 12.4 5.6 -1.5 38 5.5 NNE 24 32 13 17 1022.9 1023.0 0.0
29/07:30am 10.7 4.2 -2.3 40 5.0 NNE 22 28 12 15 1022.8 1022.9 0.0
29/07:00am 10.5 3.6 -2.5 40 5.0 NNE 24 33 13 18 1022.6 1022.7 0.0
29/06:30am 9.9 3.8 -2.7 41 4.7 NNE 20 26 11 14 1022.3 1022.4 0.0
29/06:00am 10.6 4.0 -3.1 38 5.1 NNE 22 26 12 14 1022.1 1022.2 0.0
29/05:30am 10.8 4.2 -3.3 37 5.3 NNE 22 30 12 16 1021.8 1021.9 0.0
29/05:00am 10.7 4.5 -3.4 37 5.3 NNE 20 24 11 13 1021.6 1021.7 0.0
29/04:30am 11.1 4.4 -3.8 35 5.5 NNE 22 26 12 14 1021.3 1021.4 0.0
29/04:00am 10.7 4.4 -3.7 36 5.4 NNE 20 24 11 13 1021.3 1021.4 0.0
29/03:30am 11.0 4.7 -4.2 34 5.6 NNE 20 24 11 13 1021.4 1021.5 0.0
29/03:00am 12.0 5.7 -4.2 32 6.0 NNE 20 26 11 14 1021.5 1021.6 0.0
29/02:30am 13.2 6.5 -4.4 29 6.6 NNE 22 28 12 15 1021.7 1021.8 0.0
29/02:00am 13.2 6.5 -4.4 29 6.6 NNE 22 28 12 15 1021.9 1022.0 0.0
29/01:30am 13.0 6.8 -5.1 28 6.7 NE 19 24 10 13 1022.3 1022.4 0.0
29/01:00am 13.0 5.8 -5.1 28 6.7 NE 24 28 13 15 1022.4 1022.5 0.0
29/12:30am 12.3 5.1 -5.7 28 6.5 NE 24 30 13 16 1022.6 1022.7 0.0
29/12:00am 12.4 5.5 -6.0 27 6.6 NE 22 28 12 15 1022.9 1023.0 0.0
 
Date/Time
CST
Temp
°C
App
Temp
°C
Dew
Point
Rel
Hum
%
Delta-T
°C
Wind Press
QNH
hPa
Press
MSL
hPa
Rain
since 9 am
mm
Dir
 
Spd
km/h
Gust
km/h
Spd
kts
Gust
kts
28/11:30pm 12.6 5.7 -5.9 27 6.7 NE 22 28 12 15 1023.3 1023.3 0.0
28/11:00pm 12.5 6.0 -5.5 28 6.6 NE 20 22 11 12 1023.4 1023.4 0.0
28/10:30pm 12.1 5.7 -5.4 29 6.3 NE 20 24 11 13 1023.5 1023.5 0.0
28/10:00pm 11.6 5.7 -5.4 30 6.1 NE 17 19 9 10 1023.7 1023.7 0.0
28/09:30pm 11.9 5.5 -5.1 30 6.2 NE 20 20 11 11 1023.4 1023.4 0.0
28/09:00pm 12.6 6.4 -4.9 29 6.4 ENE 19 20 10 11 1023.3 1023.3 0.0
28/08:30pm 13.9 7.7 -5.3 26 7.1 NE 19 20 10 11 1023.1 1023.1 0.0
28/08:00pm 15.5 10.0 -5.0 24 7.8 NE 15 17 8 9 1022.8 1022.9 0.0
28/07:30pm 17.4 11.6 -5.1 21 8.7 NE 17 20 9 11 1022.3 1022.4 0.0
28/07:00pm 18.6 12.7 -5.4 19 9.4 NE 17 19 9 10 1022.0 1022.1 0.0
28/06:30pm 21.4 15.8 -6.3 15 10.9 NE 15 19 8 10 1021.7 1021.8 0.0
28/06:00pm 24.7 17.8 -6.6 12 12.7 NE 22 28 12 15 1021.5 1021.6 0.0
28/05:30pm 26.0 17.9 -6.7 11 13.4 NE 28 37 15 20 1021.5 1021.6 0.0
28/05:00pm 26.7 19.0 -6.2 11 13.7 NNE 26 33 14 18 1021.6 1021.7 0.0
28/04:31pm 27.0 18.9 -7.2 10 14.1 NNE 28 46 15 25 1021.5 1021.6 0.0
28/04:30pm 26.9 18.4 -7.3 10 14.0 NNE 30 46 16 25 1021.5 1021.6 0.0
28/04:27pm 27.1 19.0 -7.1 10 14.1 NE 28 46 15 25 1021.5 1021.6 0.0
28/04:00pm 27.4 18.8 -8.2 9 14.4 NE 30 43 16 23 1021.6 1021.7 0.0
28/03:30pm 27.7 18.9 -6.6 10 14.3 NNE 32 41 17 22 1021.8 1021.9 0.0
28/03:00pm 27.8 20.1 -6.6 10 14.3 NNE 26 35 14 19 1022.0 1022.1 0.0
28/02:30pm 28.0 20.1 -5.2 11 14.2 N 28 41 15 22 1022.2 1022.3 0.0
28/02:00pm 27.7 19.7 -5.4 11 14.1 NE 28 41 15 22 1022.6 1022.7 0.0
28/01:30pm 27.5 19.3 -4.4 12 13.8 NE 30 44 16 24 1022.9 1023.0 0.0
28/01:00pm 27.1 19.3 -3.7 13 13.5 NNE 28 39 15 21 1023.6 1023.6 0.0
28/12:30pm 26.3 18.6 -3.3 14 12.9 NNE 28 37 15 20 1024.3 1024.3 0.0
28/12:00pm 25.1 18.0 -1.6 17 11.9 NNE 26 33 14 18 1024.7 1024.7 0.0
28/11:30am 24.4 17.2 -2.2 17 11.7 NNE 26 37 14 20 1025.3 1025.3 0.0
28/11:00am 23.3 15.9 -0.9 20 10.8 NNE 28 35 15 19 1025.6 1025.6 0.0
28/10:30am 21.7 14.6 -0.9 22 9.9 NNE 26 33 14 18 1025.7 1025.7 0.0
28/10:00am 20.0 13.4 -0.6 25 9.0 NNE 24 32 13 17 1025.8 1025.8 0.0
28/09:30am 18.1 11.9 -0.2 29 7.9 NNE 22 30 12 16 1025.8 1025.8 0.0
28/09:00am 16.2 10.5 0.3 34 6.8 NNE 20 26 11 14 1025.7 1025.7 0.2
28/08:30am 13.6 8.5 0.9 42 5.4 NNE 17 22 9 12 1025.7 1025.7 0.2
28/08:00am 10.8 5.3 0.8 50 4.1 NE 19 24 10 13 1025.3 1025.3 0.2
28/07:30am 8.4 3.3 0.9 59 3.0 NNE 17 20 9 11 1025.0 1025.0 0.2
28/07:00am 8.1 2.7 1.0 61 2.9 NE 19 22 10 12 1024.5 1024.5 0.2
28/06:30am 8.1 3.1 1.3 62 2.8 NNE 17 20 9 11 1024.3 1024.3 0.2
28/06:00am 8.7 3.4 1.6 61 2.9 NE 19 20 10 11 1024.0 1024.0 0.2
28/05:30am 9.2 3.9 1.6 59 3.1 NE 19 24 10 13 1023.8 1023.8 0.2
28/05:00am 9.0 3.6 2.3 63 2.8 NE 20 22 11 12 1023.5 1023.5 0.2
28/04:30am 8.7 3.4 2.9 67 2.5 NE 20 24 11 13 1023.5 1023.5 0.2
28/04:00am 6.6 1.9 2.9 77 1.5 NE 17 20 9 11 1023.5 1023.5 0.2
28/03:30am 7.1 2.4 3.2 76 1.6 ENE 17 19 9 10 1023.4 1023.4 0.2
28/03:00am 8.2 3.3 4.0 75 1.8 ENE 19 20 10 11 1023.4 1023.4 0.2
28/02:30am 7.9 3.0 5.0 82 1.3 E 20 22 11 12 1023.6 1023.6 0.2
28/02:00am 7.9 3.4 5.9 87 0.9 E 19 20 10 11 1023.8 1023.8 0.2
28/01:37am 7.8 3.7 6.1 89 0.8 E 17 19 9 10 1023.9 1023.9 0.2
28/01:30am 7.8 4.1 6.3 90 0.7 E 15 19 8 10 1024.0 1024.0 0.2
28/01:00am 8.5 4.3 7.3 92 0.6 ESE 19 20 10 11 1024.1 1024.1 0.2
28/12:39am 8.2 3.9 6.8 91 0.7 ESE 19 20 10 11 1024.1 1024.1 0.2
28/12:30am 8.8 4.6 7.4 91 0.7 ESE 19 20 10 11 1024.2 1024.2 0.2
28/12:00am 9.5 5.5 8.1 91 0.7 ESE 19 20 10 11 1024.4 1024.4 0.2
 
Date/Time
CST
Temp
°C
App
Temp
°C
Dew
Point
Rel
Hum
%
Delta-T
°C
Wind Press
QNH
hPa
Press
MSL
hPa
Rain
since 9 am
mm
Dir
 
Spd
km/h
Gust
km/h
Spd
kts
Gust
kts
27/11:30pm 8.8 4.9 7.3 90 0.7 SE 17 19 9 10 1024.5 1024.5 0.2
27/11:00pm 10.2 6.6 8.3 88 0.9 SE 17 20 9 11 1024.7 1024.7 0.2
27/10:30pm 10.5 7.0 8.6 88 0.9 SE 17 19 9 10 1024.7 1024.7 0.2
27/10:00pm 10.7 7.5 8.3 85 1.2 SE 15 17 8 9 1024.8 1024.8 0.2
27/09:30pm 11.9 8.7 8.6 80 1.6 SE 15 17 8 9 1024.7 1024.7 0.2
27/09:00pm 13.4 10.3 8.9 74 2.3 ESE 15 19 8 10 1024.7 1024.7 0.2
27/08:30pm 14.1 10.6 8.7 70 2.7 SE 17 19 9 10 1024.4 1024.4 0.2
27/08:00pm 13.8 10.4 9.3 74 2.3 SE 17 20 9 11 1024.2 1024.2 0.2
27/07:30pm 14.5 11.2 9.7 73 2.5 SE 17 19 9 10 1023.9 1023.9 0.2
27/07:00pm 15.1 11.8 9.7 70 2.8 SE 17 20 9 11 1023.5 1023.5 0.2
27/06:30pm 16.4 12.5 8.6 60 4.0 SE 19 24 10 13 1023.3 1023.3 0.2
27/06:00pm 18.2 13.4 7.3 49 5.5 SE 22 30 12 16 1023.2 1023.2 0.2
27/05:30pm 19.7 14.2 6.1 41 6.8 SE 24 30 13 16 1022.9 1023.0 0.2
27/05:00pm 21.1 15.5 5.5 36 7.8 SE 24 30 13 16 1022.8 1022.9 0.2
27/04:30pm 21.4 15.1 5.7 36 7.8 SE 28 32 15 17 1022.7 1022.8 0.2
27/04:00pm 20.8 15.2 8.8 46 6.3 SSE 28 33 15 18 1022.7 1022.8 0.2
27/03:30pm 21.0 16.4 11.1 53 5.4 SSE 26 32 14 17 1022.7 1022.8 0.2
27/03:00pm 21.5 16.6 10.0 48 6.2 S 26 32 14 17 1022.8 1022.9 0.2
27/02:30pm 22.4 17.2 8.9 42 7.2 SSE 26 32 14 17 1023.1 1023.1 0.2
27/02:00pm 23.0 18.4 8.3 39 7.8 S 22 30 12 16 1022.9 1023.0 0.2

Other Formats:

Comma delimited format used in spreadsheet applications
http://www.bom.gov.au/fwo/IDS60801/IDS60801.94651.axf

JavaScript Object Notation format (JSON) in row-major order
http://www.bom.gov.au/fwo/IDS60801/IDS60801.94651.json